sensor_id;sensor_type;location;lat;lon;timestamp;pressure;altitude;pressure_sealevel;temperature;humidity
55424;BME280;41294;42.666;23.350;2023-04-15T00:00:13;94165.16;;;9.07;80.66
55424;BME280;41294;42.666;23.350;2023-04-15T00:02:40;94171.44;;;9.01;81.78
55424;BME280;41294;42.666;23.350;2023-04-15T00:05:06;94173.22;;;8.95;80.56
55424;BME280;41294;42.666;23.350;2023-04-15T00:07:31;94182.53;;;9.05;80.60
55424;BME280;41294;42.666;23.350;2023-04-15T00:09:57;94202.03;;;9.13;79.93
55424;BME280;41294;42.666;23.350;2023-04-15T00:12:26;94220.09;;;9.11;81.85
55424;BME280;41294;42.666;23.350;2023-04-15T00:14:52;94215.75;;;9.08;81.45
55424;BME280;41294;42.666;23.350;2023-04-15T00:17:17;94195.47;;;9.08;79.99
55424;BME280;41294;42.666;23.350;2023-04-15T00:19:43;94200.47;;;9.30;79.81
55424;BME280;41294;42.666;23.350;2023-04-15T00:22:13;94215.78;;;9.31;81.90
55424;BME280;41294;42.666;23.350;2023-04-15T00:24:39;94207.22;;;9.22;81.52
55424;BME280;41294;42.666;23.350;2023-04-15T00:27:05;94208.34;;;9.30;83.50
55424;BME280;41294;42.666;23.350;2023-04-15T00:29:30;94203.97;;;9.27;82.45
55424;BME280;41294;42.666;23.350;2023-04-15T00:31:56;94196.06;;;9.36;82.40
55424;BME280;41294;42.666;23.350;2023-04-15T00:34:22;94189.03;;;9.42;83.23
55424;BME280;41294;42.666;23.350;2023-04-15T00:36:48;94190.31;;;9.46;85.12
55424;BME280;41294;42.666;23.350;2023-04-15T00:39:14;94201.53;;;9.47;84.54
55424;BME280;41294;42.666;23.350;2023-04-15T00:41:40;94205.28;;;9.55;84.99
55424;BME280;41294;42.666;23.350;2023-04-15T00:44:06;94210.19;;;9.62;85.50
55424;BME280;41294;42.666;23.350;2023-04-15T00:46:34;94207.53;;;9.47;85.85
55424;BME280;41294;42.666;23.350;2023-04-15T00:49:02;94215.25;;;9.51;85.57
55424;BME280;41294;42.666;23.350;2023-04-15T00:51:28;94216.13;;;9.48;86.62
55424;BME280;41294;42.666;23.350;2023-04-15T00:53:53;94212.72;;;9.33;85.50
55424;BME280;41294;42.666;23.350;2023-04-15T00:56:20;94206.63;;;9.50;85.95
55424;BME280;41294;42.666;23.350;2023-04-15T00:58:48;94206.97;;;9.43;86.15
55424;BME280;41294;42.666;23.350;2023-04-15T01:01:17;94209.88;;;9.45;86.15
55424;BME280;41294;42.666;23.350;2023-04-15T01:03:45;94216.97;;;9.54;85.51
55424;BME280;41294;42.666;23.350;2023-04-15T01:06:11;94217.97;;;9.33;85.02
55424;BME280;41294;42.666;23.350;2023-04-15T01:08:36;94212.78;;;9.47;83.82
55424;BME280;41294;42.666;23.350;2023-04-15T01:11:02;94214.25;;;9.39;84.46
55424;BME280;41294;42.666;23.350;2023-04-15T01:13:28;94210.25;;;9.29;85.85
55424;BME280;41294;42.666;23.350;2023-04-15T01:15:55;94210.94;;;9.39;87.63
55424;BME280;41294;42.666;23.350;2023-04-15T01:18:21;94215.19;;;9.36;84.88
55424;BME280;41294;42.666;23.350;2023-04-15T01:20:47;94212.94;;;9.44;86.34
55424;BME280;41294;42.666;23.350;2023-04-15T01:23:12;94209.06;;;9.54;85.46
55424;BME280;41294;42.666;23.350;2023-04-15T01:25:38;94199.03;;;9.52;84.82
55424;BME280;41294;42.666;23.350;2023-04-15T01:28:04;94197.75;;;9.48;85.38
55424;BME280;41294;42.666;23.350;2023-04-15T01:30:33;94192.19;;;9.46;86.28
55424;BME280;41294;42.666;23.350;2023-04-15T01:32:59;94198.03;;;9.50;86.37
55424;BME280;41294;42.666;23.350;2023-04-15T01:35:24;94197.63;;;9.42;86.73
55424;BME280;41294;42.666;23.350;2023-04-15T01:37:50;94190.78;;;9.36;85.75
55424;BME280;41294;42.666;23.350;2023-04-15T01:40:15;94195.78;;;9.34;86.76
55424;BME280;41294;42.666;23.350;2023-04-15T01:42:41;94198.31;;;9.28;87.84
55424;BME280;41294;42.666;23.350;2023-04-15T01:45:07;94205.25;;;9.31;88.31
55424;BME280;41294;42.666;23.350;2023-04-15T01:47:33;94210.69;;;9.28;88.40
55424;BME280;41294;42.666;23.350;2023-04-15T01:49:58;94206.00;;;9.32;89.18
55424;BME280;41294;42.666;23.350;2023-04-15T01:52:23;94210.84;;;9.24;88.86
55424;BME280;41294;42.666;23.350;2023-04-15T01:54:49;94218.84;;;9.30;87.61
55424;BME280;41294;42.666;23.350;2023-04-15T01:57:14;94217.84;;;9.27;88.78
55424;BME280;41294;42.666;23.350;2023-04-15T01:59:40;94228.66;;;9.29;89.11
55424;BME280;41294;42.666;23.350;2023-04-15T02:02:06;94228.47;;;9.33;88.92
55424;BME280;41294;42.666;23.350;2023-04-15T02:04:31;94221.78;;;8.99;88.51
55424;BME280;41294;42.666;23.350;2023-04-15T02:06:58;94224.25;;;8.94;88.13
55424;BME280;41294;42.666;23.350;2023-04-15T02:09:24;94220.78;;;8.88;88.10
55424;BME280;41294;42.666;23.350;2023-04-15T02:11:50;94221.06;;;8.99;87.60
55424;BME280;41294;42.666;23.350;2023-04-15T02:14:17;94214.56;;;9.09;88.83
55424;BME280;41294;42.666;23.350;2023-04-15T02:16:42;94210.03;;;9.18;88.26
55424;BME280;41294;42.666;23.350;2023-04-15T02:19:07;94214.97;;;9.16;89.57
55424;BME280;41294;42.666;23.350;2023-04-15T02:21:33;94209.59;;;9.11;88.71
55424;BME280;41294;42.666;23.350;2023-04-15T02:23:59;94209.09;;;8.98;91.23
55424;BME280;41294;42.666;23.350;2023-04-15T02:26:26;94205.31;;;8.99;90.84
55424;BME280;41294;42.666;23.350;2023-04-15T02:28:52;94207.38;;;8.86;91.68
55424;BME280;41294;42.666;23.350;2023-04-15T02:31:17;94213.56;;;8.65;91.82
55424;BME280;41294;42.666;23.350;2023-04-15T02:33:42;94212.59;;;8.45;91.68
55424;BME280;41294;42.666;23.350;2023-04-15T02:36:08;94189.47;;;8.34;91.60
55424;BME280;41294;42.666;23.350;2023-04-15T02:38:35;94200.63;;;8.53;91.67
55424;BME280;41294;42.666;23.350;2023-04-15T02:41:02;94203.72;;;8.51;92.31
55424;BME280;41294;42.666;23.350;2023-04-15T02:43:27;94203.97;;;8.62;91.92
55424;BME280;41294;42.666;23.350;2023-04-15T02:45:53;94211.84;;;8.62;92.16
55424;BME280;41294;42.666;23.350;2023-04-15T02:48:18;94215.06;;;8.48;92.56
55424;BME280;41294;42.666;23.350;2023-04-15T02:50:45;94208.38;;;8.38;93.14
55424;BME280;41294;42.666;23.350;2023-04-15T02:53:10;94208.28;;;8.33;93.06
55424;BME280;41294;42.666;23.350;2023-04-15T02:55:37;94215.09;;;8.30;94.67
55424;BME280;41294;42.666;23.350;2023-04-15T02:58:02;94227.06;;;8.31;94.21
55424;BME280;41294;42.666;23.350;2023-04-15T03:00:28;94229.38;;;8.29;93.78
55424;BME280;41294;42.666;23.350;2023-04-15T03:02:59;94226.78;;;7.85;95.69
55424;BME280;41294;42.666;23.350;2023-04-15T03:05:25;94234.59;;;7.49;96.97
55424;BME280;41294;42.666;23.350;2023-04-15T03:07:51;94231.69;;;7.56;97.29
55424;BME280;41294;42.666;23.350;2023-04-15T03:10:16;94229.66;;;7.78;96.20
55424;BME280;41294;42.666;23.350;2023-04-15T03:12:42;94232.00;;;8.03;94.58
55424;BME280;41294;42.666;23.350;2023-04-15T03:15:08;94240.16;;;8.05;94.37
55424;BME280;41294;42.666;23.350;2023-04-15T03:17:34;94248.00;;;8.13;94.24
55424;BME280;41294;42.666;23.350;2023-04-15T03:20:03;94255.00;;;7.81;92.01
55424;BME280;41294;42.666;23.350;2023-04-15T03:22:30;94249.00;;;7.53;91.99
55424;BME280;41294;42.666;23.350;2023-04-15T03:24:55;94251.69;;;7.23;93.71
55424;BME280;41294;42.666;23.350;2023-04-15T03:27:21;94253.50;;;7.53;93.23
55424;BME280;41294;42.666;23.350;2023-04-15T03:29:47;94251.56;;;7.27;88.55
55424;BME280;41294;42.666;23.350;2023-04-15T03:32:12;94253.38;;;7.08;88.26
55424;BME280;41294;42.666;23.350;2023-04-15T03:34:39;94275.81;;;7.27;88.35
55424;BME280;41294;42.666;23.350;2023-04-15T03:37:05;94259.50;;;7.14;86.78
55424;BME280;41294;42.666;23.350;2023-04-15T03:39:31;94264.59;;;6.78;89.11
55424;BME280;41294;42.666;23.350;2023-04-15T03:41:56;94281.53;;;6.95;89.48
55424;BME280;41294;42.666;23.350;2023-04-15T03:44:22;94256.13;;;7.05;89.32
55424;BME280;41294;42.666;23.350;2023-04-15T03:46:47;94279.84;;;7.10;90.48
55424;BME280;41294;42.666;23.350;2023-04-15T03:49:13;94280.44;;;7.14;91.01
55424;BME280;41294;42.666;23.350;2023-04-15T03:51:38;94293.28;;;7.30;90.69
55424;BME280;41294;42.666;23.350;2023-04-15T03:54:03;94296.94;;;7.32;91.45
55424;BME280;41294;42.666;23.350;2023-04-15T03:56:29;94284.53;;;7.24;92.89
55424;BME280;41294;42.666;23.350;2023-04-15T03:58:55;94294.78;;;7.40;92.86
55424;BME280;41294;42.666;23.350;2023-04-15T04:01:20;94281.84;;;7.36;93.13
55424;BME280;41294;42.666;23.350;2023-04-15T04:03:46;94288.19;;;7.27;93.42
55424;BME280;41294;42.666;23.350;2023-04-15T04:06:11;94292.84;;;7.32;93.58
55424;BME280;41294;42.666;23.350;2023-04-15T04:08:37;94309.78;;;8.32;89.69
55424;BME280;41294;42.666;23.350;2023-04-15T04:11:03;94303.72;;;9.36;83.80
55424;BME280;41294;42.666;23.350;2023-04-15T04:13:28;94294.56;;;9.64;81.49
55424;BME280;41294;42.666;23.350;2023-04-15T04:15:54;94303.31;;;10.54;79.16
55424;BME280;41294;42.666;23.350;2023-04-15T04:18:19;94292.63;;;11.01;76.92
55424;BME280;41294;42.666;23.350;2023-04-15T04:20:45;94302.63;;;11.60;74.32
55424;BME280;41294;42.666;23.350;2023-04-15T04:23:10;94299.59;;;12.01;72.38
55424;BME280;41294;42.666;23.350;2023-04-15T04:25:36;94301.69;;;12.57;69.94
55424;BME280;41294;42.666;23.350;2023-04-15T04:28:02;94306.88;;;12.97;68.68
55424;BME280;41294;42.666;23.350;2023-04-15T04:30:28;94293.25;;;13.34;65.97
55424;BME280;41294;42.666;23.350;2023-04-15T04:32:53;94284.28;;;14.04;65.06
55424;BME280;41294;42.666;23.350;2023-04-15T04:35:19;94293.16;;;14.43;61.23
55424;BME280;41294;42.666;23.350;2023-04-15T04:37:44;94289.41;;;14.93;60.39
55424;BME280;41294;42.666;23.350;2023-04-15T04:40:10;94291.34;;;15.04;60.67
55424;BME280;41294;42.666;23.350;2023-04-15T04:42:36;94293.50;;;14.89;59.89
55424;BME280;41294;42.666;23.350;2023-04-15T04:45:01;94295.47;;;15.54;58.45
55424;BME280;41294;42.666;23.350;2023-04-15T04:47:27;94297.25;;;16.14;55.51
55424;BME280;41294;42.666;23.350;2023-04-15T04:49:52;94314.22;;;15.89;55.52
55424;BME280;41294;42.666;23.350;2023-04-15T04:52:18;94308.16;;;15.94;55.75
55424;BME280;41294;42.666;23.350;2023-04-15T04:54:43;94305.44;;;16.32;55.87
55424;BME280;41294;42.666;23.350;2023-04-15T04:57:08;94303.69;;;16.46;55.24
55424;BME280;41294;42.666;23.350;2023-04-15T04:59:34;94312.09;;;16.60;53.48
55424;BME280;41294;42.666;23.350;2023-04-15T05:01:59;94315.75;;;16.98;53.34
55424;BME280;41294;42.666;23.350;2023-04-15T05:04:25;94324.91;;;17.42;50.76
55424;BME280;41294;42.666;23.350;2023-04-15T05:06:50;94316.75;;;17.88;50.09
55424;BME280;41294;42.666;23.350;2023-04-15T05:09:16;94330.00;;;18.23;50.20
55424;BME280;41294;42.666;23.350;2023-04-15T05:11:41;94324.13;;;18.48;48.33
55424;BME280;41294;42.666;23.350;2023-04-15T05:14:07;94332.75;;;18.36;47.65
55424;BME280;41294;42.666;23.350;2023-04-15T05:16:32;94340.44;;;18.82;47.74
55424;BME280;41294;42.666;23.350;2023-04-15T05:18:57;94339.28;;;18.77;46.85
55424;BME280;41294;42.666;23.350;2023-04-15T05:21:24;94345.38;;;19.46;45.59
55424;BME280;41294;42.666;23.350;2023-04-15T05:23:50;94346.66;;;19.58;46.40
55424;BME280;41294;42.666;23.350;2023-04-15T05:26:15;94344.66;;;19.77;44.43
55424;BME280;41294;42.666;23.350;2023-04-15T05:28:41;94345.91;;;19.88;44.17
55424;BME280;41294;42.666;23.350;2023-04-15T05:31:07;94334.66;;;18.96;43.54
55424;BME280;41294;42.666;23.350;2023-04-15T05:33:32;94337.50;;;19.03;45.22
55424;BME280;41294;42.666;23.350;2023-04-15T05:35:58;94327.69;;;18.32;44.46
55424;BME280;41294;42.666;23.350;2023-04-15T05:38:23;94338.56;;;18.77;46.38
55424;BME280;41294;42.666;23.350;2023-04-15T05:40:49;94340.06;;;18.06;45.33
55424;BME280;41294;42.666;23.350;2023-04-15T05:43:14;94339.72;;;17.91;47.58
55424;BME280;41294;42.666;23.350;2023-04-15T05:45:39;94343.66;;;18.09;46.15
55424;BME280;41294;42.666;23.350;2023-04-15T05:48:05;94338.75;;;16.28;50.53
55424;BME280;41294;42.666;23.350;2023-04-15T05:50:31;94337.38;;;17.53;48.89
55424;BME280;41294;42.666;23.350;2023-04-15T05:52:56;94340.25;;;17.20;48.11
55424;BME280;41294;42.666;23.350;2023-04-15T05:55:22;94346.28;;;17.61;49.70
55424;BME280;41294;42.666;23.350;2023-04-15T05:57:47;94341.72;;;17.56;47.48
55424;BME280;41294;42.666;23.350;2023-04-15T06:00:13;94349.19;;;18.16;48.25
55424;BME280;41294;42.666;23.350;2023-04-15T06:02:39;94364.56;;;17.99;46.78
55424;BME280;41294;42.666;23.350;2023-04-15T06:05:05;94361.28;;;15.88;49.56
55424;BME280;41294;42.666;23.350;2023-04-15T06:07:37;94360.94;;;16.47;49.48
55424;BME280;41294;42.666;23.350;2023-04-15T06:10:04;94369.00;;;17.27;47.89
55424;BME280;41294;42.666;23.350;2023-04-15T06:12:30;94367.25;;;16.33;48.02
55424;BME280;41294;42.666;23.350;2023-04-15T06:14:55;94364.75;;;14.18;55.75
55424;BME280;41294;42.666;23.350;2023-04-15T06:17:21;94367.34;;;15.56;53.27
55424;BME280;41294;42.666;23.350;2023-04-15T06:19:46;94364.75;;;17.53;49.79
55424;BME280;41294;42.666;23.350;2023-04-15T06:22:12;94363.38;;;19.08;46.44
55424;BME280;41294;42.666;23.350;2023-04-15T06:24:37;94364.84;;;16.91;46.98
55424;BME280;41294;42.666;23.350;2023-04-15T06:27:02;94368.81;;;14.66;53.39
55424;BME280;41294;42.666;23.350;2023-04-15T06:29:28;94377.91;;;14.49;55.50
55424;BME280;41294;42.666;23.350;2023-04-15T06:31:53;94385.41;;;16.12;52.16
55424;BME280;41294;42.666;23.350;2023-04-15T06:34:20;94383.84;;;17.52;48.17
55424;BME280;41294;42.666;23.350;2023-04-15T06:36:45;94391.72;;;18.27;47.10
55424;BME280;41294;42.666;23.350;2023-04-15T06:39:11;94386.25;;;17.15;46.38
55424;BME280;41294;42.666;23.350;2023-04-15T06:41:36;94384.19;;;16.02;49.34
55424;BME280;41294;42.666;23.350;2023-04-15T06:44:02;94389.72;;;16.21;50.03
55424;BME280;41294;42.666;23.350;2023-04-15T06:46:27;94387.97;;;17.07;48.19
55424;BME280;41294;42.666;23.350;2023-04-15T06:48:53;94401.50;;;18.13;46.21
55424;BME280;41294;42.666;23.350;2023-04-15T06:51:18;94398.44;;;16.94;46.85
55424;BME280;41294;42.666;23.350;2023-04-15T06:53:43;94399.41;;;15.63;50.13
55424;BME280;41294;42.666;23.350;2023-04-15T06:56:09;94402.06;;;15.91;50.91
55424;BME280;41294;42.666;23.350;2023-04-15T06:58:35;94402.91;;;17.91;49.62
55424;BME280;41294;42.666;23.350;2023-04-15T07:01:00;94395.16;;;17.63;46.14
55424;BME280;41294;42.666;23.350;2023-04-15T07:03:26;94396.72;;;16.24;48.73
55424;BME280;41294;42.666;23.350;2023-04-15T07:05:51;94395.53;;;15.37;52.03
55424;BME280;41294;42.666;23.350;2023-04-15T07:08:18;94397.03;;;16.82;49.27
55424;BME280;41294;42.666;23.350;2023-04-15T07:10:43;94405.91;;;16.96;48.26
55424;BME280;41294;42.666;23.350;2023-04-15T07:13:10;94401.25;;;17.53;46.92
55424;BME280;41294;42.666;23.350;2023-04-15T07:15:36;94399.25;;;14.87;51.67
55424;BME280;41294;42.666;23.350;2023-04-15T07:18:02;94397.72;;;16.10;51.36
55424;BME280;41294;42.666;23.350;2023-04-15T07:20:27;94395.88;;;17.29;48.16
55424;BME280;41294;42.666;23.350;2023-04-15T07:22:53;94401.50;;;17.55;47.91
55424;BME280;41294;42.666;23.350;2023-04-15T07:25:19;94397.38;;;18.84;44.68
55424;BME280;41294;42.666;23.350;2023-04-15T07:27:44;94397.00;;;18.32;45.57
55424;BME280;41294;42.666;23.350;2023-04-15T07:30:10;94399.16;;;17.75;45.09
55424;BME280;41294;42.666;23.350;2023-04-15T07:32:36;94411.25;;;18.06;45.90
55424;BME280;41294;42.666;23.350;2023-04-15T07:35:02;94408.47;;;19.80;41.44
55424;BME280;41294;42.666;23.350;2023-04-15T07:37:28;94402.22;;;20.09;41.12
55424;BME280;41294;42.666;23.350;2023-04-15T07:39:54;94401.66;;;17.97;44.67
55424;BME280;41294;42.666;23.350;2023-04-15T07:42:19;94399.66;;;17.74;46.65
55424;BME280;41294;42.666;23.350;2023-04-15T07:44:44;94402.97;;;17.85;45.29
55424;BME280;41294;42.666;23.350;2023-04-15T07:47:10;94405.44;;;15.97;48.96
55424;BME280;41294;42.666;23.350;2023-04-15T07:49:36;94405.88;;;16.45;49.63
55424;BME280;41294;42.666;23.350;2023-04-15T07:52:01;94409.78;;;17.81;46.43
55424;BME280;41294;42.666;23.350;2023-04-15T07:54:28;94414.56;;;16.50;48.55
55424;BME280;41294;42.666;23.350;2023-04-15T07:56:53;94415.56;;;16.26;49.45
55424;BME280;41294;42.666;23.350;2023-04-15T07:59:20;94412.16;;;17.04;49.49
55424;BME280;41294;42.666;23.350;2023-04-15T08:01:45;94417.44;;;17.15;47.79
55424;BME280;41294;42.666;23.350;2023-04-15T08:04:29;94420.53;;;18.52;44.73
55424;BME280;41294;42.666;23.350;2023-04-15T08:06:55;94414.53;;;18.22;45.43
55424;BME280;41294;42.666;23.350;2023-04-15T08:09:20;94407.38;;;19.39;43.92
55424;BME280;41294;42.666;23.350;2023-04-15T08:11:48;94411.66;;;18.87;42.80
55424;BME280;41294;42.666;23.350;2023-04-15T08:14:14;94408.22;;;17.61;45.89
55424;BME280;41294;42.666;23.350;2023-04-15T08:16:39;94413.16;;;18.40;44.11
55424;BME280;41294;42.666;23.350;2023-04-15T08:19:05;94410.28;;;18.09;43.95
55424;BME280;41294;42.666;23.350;2023-04-15T08:21:30;94407.63;;;16.93;46.71
55424;BME280;41294;42.666;23.350;2023-04-15T08:23:56;94413.81;;;16.55;48.22
55424;BME280;41294;42.666;23.350;2023-04-15T08:26:40;94411.97;;;16.96;46.94
55424;BME280;41294;42.666;23.350;2023-04-15T08:29:06;94418.81;;;17.72;45.71
55424;BME280;41294;42.666;23.350;2023-04-15T08:31:31;94412.28;;;19.35;43.96
55424;BME280;41294;42.666;23.350;2023-04-15T08:33:57;94408.53;;;18.40;42.62
55424;BME280;41294;42.666;23.350;2023-04-15T08:36:24;94402.47;;;17.52;44.74
55424;BME280;41294;42.666;23.350;2023-04-15T08:38:51;94400.34;;;17.80;44.17
55424;BME280;41294;42.666;23.350;2023-04-15T08:41:21;94391.88;;;19.19;41.65
55424;BME280;41294;42.666;23.350;2023-04-15T08:44:02;94398.06;;;18.18;41.16
55424;BME280;41294;42.666;23.350;2023-04-15T08:46:30;94393.47;;;17.20;44.91
55424;BME280;41294;42.666;23.350;2023-04-15T08:48:57;94394.56;;;16.95;44.85
55424;BME280;41294;42.666;23.350;2023-04-15T08:51:22;94384.66;;;18.53;42.61
55424;BME280;41294;42.666;23.350;2023-04-15T08:53:48;94389.41;;;17.83;42.75
55424;BME280;41294;42.666;23.350;2023-04-15T08:56:15;94386.34;;;19.17;42.09
55424;BME280;41294;42.666;23.350;2023-04-15T08:58:43;94383.72;;;17.98;43.76
55424;BME280;41294;42.666;23.350;2023-04-15T09:01:11;94390.00;;;17.36;43.81
55424;BME280;41294;42.666;23.350;2023-04-15T09:03:37;94382.53;;;16.83;44.68
55424;BME280;41294;42.666;23.350;2023-04-15T09:06:06;94373.94;;;16.55;45.83
55424;BME280;41294;42.666;23.350;2023-04-15T09:08:32;94382.41;;;16.54;44.07
55424;BME280;41294;42.666;23.350;2023-04-15T09:11:04;94382.44;;;16.38;43.24
55424;BME280;41294;42.666;23.350;2023-04-15T09:13:29;94381.28;;;18.00;41.13
55424;BME280;41294;42.666;23.350;2023-04-15T09:15:55;94372.56;;;17.70;41.35
55424;BME280;41294;42.666;23.350;2023-04-15T09:18:30;94364.09;;;18.48;40.42
55424;BME280;41294;42.666;23.350;2023-04-15T09:21:03;94350.91;;;18.98;38.93
55424;BME280;41294;42.666;23.350;2023-04-15T09:23:29;94356.28;;;20.36;36.49
55424;BME280;41294;42.666;23.350;2023-04-15T09:25:56;94357.09;;;21.29;35.70
55424;BME280;41294;42.666;23.350;2023-04-15T09:28:25;94362.56;;;21.77;34.65
55424;BME280;41294;42.666;23.350;2023-04-15T09:30:57;94364.97;;;21.14;34.03
55424;BME280;41294;42.666;23.350;2023-04-15T09:33:24;94354.72;;;19.21;36.83
55424;BME280;41294;42.666;23.350;2023-04-15T09:36:04;94355.47;;;19.21;36.84
55424;BME280;41294;42.666;23.350;2023-04-15T09:38:30;94357.09;;;19.43;36.00
55424;BME280;41294;42.666;23.350;2023-04-15T09:40:57;94357.25;;;18.95;37.70
55424;BME280;41294;42.666;23.350;2023-04-15T09:43:26;94354.06;;;19.33;36.85
55424;BME280;41294;42.666;23.350;2023-04-15T09:46:01;94357.31;;;18.71;37.30
55424;BME280;41294;42.666;23.350;2023-04-15T09:48:26;94356.53;;;18.95;36.69
55424;BME280;41294;42.666;23.350;2023-04-15T09:50:53;94356.47;;;19.18;37.75
55424;BME280;41294;42.666;23.350;2023-04-15T09:53:23;94365.19;;;19.69;37.02
55424;BME280;41294;42.666;23.350;2023-04-15T09:55:49;94359.97;;;20.20;35.71
55424;BME280;41294;42.666;23.350;2023-04-15T10:00:46;94377.06;;;20.30;36.46
55424;BME280;41294;42.666;23.350;2023-04-15T10:03:14;94364.53;;;19.63;35.93
55424;BME280;41294;42.666;23.350;2023-04-15T10:05:43;94353.69;;;20.05;36.57
55424;BME280;41294;42.666;23.350;2023-04-15T10:08:09;94351.31;;;20.40;35.58
55424;BME280;41294;42.666;23.350;2023-04-15T10:10:35;94359.75;;;20.70;35.15
55424;BME280;41294;42.666;23.350;2023-04-15T10:13:01;94353.28;;;20.40;34.52
55424;BME280;41294;42.666;23.350;2023-04-15T10:15:27;94343.69;;;20.70;33.37
55424;BME280;41294;42.666;23.350;2023-04-15T10:17:55;94329.53;;;21.08;31.47
55424;BME280;41294;42.666;23.350;2023-04-15T10:20:22;94329.63;;;20.69;30.39
55424;BME280;41294;42.666;23.350;2023-04-15T10:22:48;94326.22;;;20.69;30.66
55424;BME280;41294;42.666;23.350;2023-04-15T10:25:15;94317.41;;;20.35;30.77
55424;BME280;41294;42.666;23.350;2023-04-15T10:27:41;94316.34;;;20.64;31.53
55424;BME280;41294;42.666;23.350;2023-04-15T10:30:07;94306.28;;;20.57;31.44
55424;BME280;41294;42.666;23.350;2023-04-15T10:32:33;94308.03;;;19.59;31.25
55424;BME280;41294;42.666;23.350;2023-04-15T10:35:00;94306.91;;;20.24;32.25
55424;BME280;41294;42.666;23.350;2023-04-15T10:37:36;94323.22;;;20.72;31.24
55424;BME280;41294;42.666;23.350;2023-04-15T10:42:48;94316.84;;;19.54;32.69
55424;BME280;41294;42.666;23.350;2023-04-15T10:45:17;94315.19;;;19.01;33.33
55424;BME280;41294;42.666;23.350;2023-04-15T10:47:43;94321.50;;;18.19;34.57
55424;BME280;41294;42.666;23.350;2023-04-15T10:50:09;94313.25;;;18.83;34.45
55424;BME280;41294;42.666;23.350;2023-04-15T10:52:39;94313.38;;;19.59;33.17
55424;BME280;41294;42.666;23.350;2023-04-15T10:55:12;94316.06;;;19.59;33.23
55424;BME280;41294;42.666;23.350;2023-04-15T10:57:41;94317.22;;;19.13;33.47
55424;BME280;41294;42.666;23.350;2023-04-15T11:00:14;94310.38;;;18.81;33.95
55424;BME280;41294;42.666;23.350;2023-04-15T11:05:14;94307.28;;;18.59;34.08
55424;BME280;41294;42.666;23.350;2023-04-15T11:12:56;94300.44;;;20.20;28.91
55424;BME280;41294;42.666;23.350;2023-04-15T11:18:15;94303.81;;;20.46;30.72
55424;BME280;41294;42.666;23.350;2023-04-15T11:20:47;94306.78;;;20.68;30.53
55424;BME280;41294;42.666;23.350;2023-04-15T11:23:16;94301.06;;;19.24;33.77
55424;BME280;41294;42.666;23.350;2023-04-15T11:25:42;94304.84;;;18.79;33.84
55424;BME280;41294;42.666;23.350;2023-04-15T11:28:07;94303.44;;;19.09;33.25
55424;BME280;41294;42.666;23.350;2023-04-15T11:30:35;94308.84;;;20.11;32.41
55424;BME280;41294;42.666;23.350;2023-04-15T11:33:06;94309.06;;;19.56;29.66
55424;BME280;41294;42.666;23.350;2023-04-15T11:35:33;94306.69;;;19.96;29.03
55424;BME280;41294;42.666;23.350;2023-04-15T11:38:03;94299.28;;;20.15;28.55
55424;BME280;41294;42.666;23.350;2023-04-15T11:40:29;94287.59;;;20.18;28.98
55424;BME280;41294;42.666;23.350;2023-04-15T11:43:15;94306.84;;;20.76;27.97
55424;BME280;41294;42.666;23.350;2023-04-15T11:45:52;94291.34;;;21.08;26.51
55424;BME280;41294;42.666;23.350;2023-04-15T11:48:19;94292.91;;;21.37;26.77
55424;BME280;41294;42.666;23.350;2023-04-15T11:50:45;94290.28;;;21.64;26.36
55424;BME280;41294;42.666;23.350;2023-04-15T11:53:12;94288.81;;;21.23;26.99
55424;BME280;41294;42.666;23.350;2023-04-15T11:55:47;94288.03;;;21.15;27.39
55424;BME280;41294;42.666;23.350;2023-04-15T11:58:17;94277.13;;;21.13;27.22
55424;BME280;41294;42.666;23.350;2023-04-15T12:00:48;94288.69;;;21.08;27.55
55424;BME280;41294;42.666;23.350;2023-04-15T12:11:14;94286.25;;;20.97;26.25
55424;BME280;41294;42.666;23.350;2023-04-15T12:13:43;94283.78;;;20.86;26.62
55424;BME280;41294;42.666;23.350;2023-04-15T12:16:09;94276.75;;;21.09;27.22
55424;BME280;41294;42.666;23.350;2023-04-15T12:18:38;94284.31;;;21.18;26.22
55424;BME280;41294;42.666;23.350;2023-04-15T12:21:09;94287.69;;;21.18;26.27
55424;BME280;41294;42.666;23.350;2023-04-15T12:23:46;94281.47;;;21.03;26.52
55424;BME280;41294;42.666;23.350;2023-04-15T12:26:13;94280.41;;;21.39;27.21
55424;BME280;41294;42.666;23.350;2023-04-15T12:28:39;94271.44;;;21.16;27.36
55424;BME280;41294;42.666;23.350;2023-04-15T12:31:10;94281.16;;;21.06;27.12
55424;BME280;41294;42.666;23.350;2023-04-15T12:33:36;94285.97;;;20.87;27.65
55424;BME280;41294;42.666;23.350;2023-04-15T12:36:02;94293.31;;;21.07;28.09
55424;BME280;41294;42.666;23.350;2023-04-15T12:38:28;94287.13;;;21.33;27.36
55424;BME280;41294;42.666;23.350;2023-04-15T12:40:53;94289.47;;;21.16;27.35
55424;BME280;41294;42.666;23.350;2023-04-15T12:43:19;94297.06;;;21.25;27.11
55424;BME280;41294;42.666;23.350;2023-04-15T12:45:44;94292.94;;;21.24;27.29
55424;BME280;41294;42.666;23.350;2023-04-15T12:48:10;94292.59;;;21.07;28.23
55424;BME280;41294;42.666;23.350;2023-04-15T12:50:35;94291.84;;;20.73;28.69
55424;BME280;41294;42.666;23.350;2023-04-15T12:53:01;94289.78;;;20.79;28.71
55424;BME280;41294;42.666;23.350;2023-04-15T12:55:28;94295.31;;;20.94;28.14
55424;BME280;41294;42.666;23.350;2023-04-15T12:57:55;94297.19;;;20.73;28.44
55424;BME280;41294;42.666;23.350;2023-04-15T13:00:21;94292.91;;;21.03;27.91
55424;BME280;41294;42.666;23.350;2023-04-15T13:02:47;94294.44;;;20.78;28.38
55424;BME280;41294;42.666;23.350;2023-04-15T13:05:13;94293.38;;;20.81;28.15
55424;BME280;41294;42.666;23.350;2023-04-15T13:07:40;94296.78;;;20.69;27.80
55424;BME280;41294;42.666;23.350;2023-04-15T13:10:05;94293.47;;;20.89;27.96
55424;BME280;41294;42.666;23.350;2023-04-15T13:12:32;94292.69;;;20.81;28.05